Startpagina
METAR-TAF:

METAR-TAF

Vliegvelden :

Uherské Hradiště, Tsjechië

breedte: 49-01-46N, lengte: 017-26-23E, hoogte: 177 m

Actueel weer

Dit bericht is 51 minuten geleden gemaakt, om 12:00 UTC
Weinig wind
Temperatuur 29°C
Vochtigheid 48%
Druk 1017 hPa
Zicht 10 km of meer
Weinig wolken op 4500 ft, Cumulonimbus.
onweer in de omgeving

METAR: LKKU 111200Z 00000KT 9999 VCTS FEW045CB 29/17 Q1017

Tijdstip: 14:51 (12:51 UTC)


TAF: ontbreekt

Waarnemingen en weersverwachtingen van meer dan 4000 vliegvelden (METAR en TAF).

De beschikbare stations zijn de gele en rode punten op de kaart.

Ga met uw muis naar het station om de naam te zien.

Klik dan om waarnemingen en weersverwachtingen te zien.

kaart wijzigen: klik op de groene knoppen met een zwart kruis om in te zoomen, op de groene knop met een streepje om uit te zoomen of op de groene pijlen voor aangrenzende kaarten.


METAR-TAF: